LQSA Airport Information

Runway Information
Runway 12 Length 8666 ft width 150 ft
Elevation 1643 ft Threshold 333 ft Heading 117
Runway 30 Length 8666 ft Width 150 ft
Elevation 1690 ft Threshold 1666 ft Heading 297
Airport Frequencies
Type APP Name APP Frequency 136.45 MHZ
Type GCA Name GCA Frequency 119.4 MHZ
Type GND Name GND Frequency 121.9 MHZ
Type TWR Name TWR Frequency 118.25 MHZ
Airport Navaids
Type NDB Name Sarajevo Frequency 436 KHZ
Type VOR-DME Name Sarajevo Frequency 116700 KHZ
Type NDB Name Kobiljaca Frequency 358 KHZ
Type VORTAC Name Sarajevo Frequency 108850 KHZ
Airport Weather Information & NOTAM
Deprecated: The each() function is deprecated. This message will be suppressed on further calls in /storage/content/79/1005879/virtualnac.org/public_html/v2/lib/functions.php on line 164 ADDS - METARS form results

(1056 UTC 20 January 2021)
Data provider http://aviationweather.gov/metar/data/
 
METAR text: LQSA 201030Z VRB03KT 8000 SCT065 04/M00 Q1022 NOSIG
Conditions at: LQSA (SARAJEVO/BUTMIR , CS) observed 1030 UTC 20 January 2021
Temperature: 4.0°C (39°F)
Dewpoint: 0.0°C (32°F) [RH = 75%]
Pressure (altimeter): 30.18 inches Hg (1022.0 mb)
Winds: variable direction winds at 3 MPH (3 knots; 1.5 m/s)
Visibility: 5 miles ( 8 km)
Ceiling: at least 12,000 feet AGL
Clouds: scattered clouds at 6500 feet AGL
Weather: no significant weather observed at this time

METAR text: LQSA 201000Z VRB02KT CAVOK 04/M00 Q1023 NOSIG
Conditions at: LQSA (SARAJEVO/BUTMIR , CS) observed 1000 UTC 20 January 2021
Temperature: 4.0°C (39°F)
Dewpoint: 0.0°C (32°F) [RH = 75%]
Pressure (altimeter): 30.21 inches Hg (1023.0 mb)
Winds: variable direction winds at 2 MPH (2 knots; 1.0 m/s)
Visibility: 6 or more miles (10+ km)
Ceiling: ceiling and visibility are OK
Clouds: unknown
Weather: no significant weather observed at this time

Forecast for: LQSA (SARAJEVO/BUTMIR , CS)
Text: TAF LQSA 200559Z 2006/2106 16006KT 8000 NSC TX06/2013Z TNM06/2006Z
Forecast period: 0600 UTC 20 January 2021 to 0600 UTC 21 January 2021
Forecast type: FROM: standard forecast or significant change
Winds: from the SSE (160 degrees) at 7 MPH (6 knots; 3.1 m/s)
Visibility: 5 miles (8 km)
Ceiling: unknown
Clouds: missing
Weather: no significant weather forecast for this period
Text: PROB30 2006/2009 1400 BCFG BKN005
Forecast period: 0600 to 0900 UTC 20 January 2021
Forecast type: PROBABLE: 30 percent likelihood of the following during this time
Visibility: 0.87 miles (1.40 km)
Ceiling: 500 feet AGL
Clouds: broken clouds at 500 feet AGL
Weather: BCFG  (patches of fog)
Text: PROB30
Forecast period: 1800 UTC 20 January 2021 to 0600 UTC 21 January 2021
Forecast type: TEMPORARY: The following changes expected for less than half the time period
Visibility: 1.24 miles (2.00 km)
Ceiling: unknown
Clouds: missing
Weather: BR  (mist)